createdAt,value
2022-12-04T00:00:01.260Z,-1.40
2022-12-04T00:02:29.962Z,-1.39
2022-12-04T00:04:56.811Z,-1.40
2022-12-04T00:07:23.664Z,-1.40
2022-12-04T00:09:50.351Z,-1.40
2022-12-04T00:12:17.229Z,-1.40
2022-12-04T00:15:23.005Z,-1.40
2022-12-04T00:17:30.468Z,-1.39
2022-12-04T00:19:57.340Z,-1.41
2022-12-04T00:22:24.148Z,-1.40
2022-12-04T00:24:50.953Z,-1.39
2022-12-04T00:27:17.872Z,-1.39
2022-12-04T00:29:44.551Z,-1.37
2022-12-04T00:32:11.289Z,-1.36
2022-12-04T00:34:38.154Z,-1.35
2022-12-04T00:37:04.985Z,-1.34
2022-12-04T00:39:31.683Z,-1.34
2022-12-04T00:41:58.427Z,-1.35
2022-12-04T00:44:25.074Z,-1.34
2022-12-04T00:46:51.796Z,-1.33
2022-12-04T00:49:18.682Z,-1.33
2022-12-04T00:51:45.476Z,-1.32
2022-12-04T00:54:12.200Z,-1.31
2022-12-04T00:56:38.921Z,-1.29
2022-12-04T00:59:05.768Z,-1.28
2022-12-04T01:01:33.066Z,-1.26
2022-12-04T01:04:00.121Z,-1.25
2022-12-04T01:06:30.556Z,-1.23
2022-12-04T01:08:59.155Z,-1.23
2022-12-04T01:11:27.693Z,-1.22
2022-12-04T01:13:55.300Z,-1.22
2022-12-04T01:16:34.088Z,-1.22
2022-12-04T01:19:05.007Z,-1.21
2022-12-04T01:21:31.835Z,-1.20
2022-12-04T01:23:59.641Z,-1.20
2022-12-04T01:26:27.402Z,-1.18
2022-12-04T01:28:54.148Z,-1.18
2022-12-04T01:31:21.353Z,-1.18
2022-12-04T01:33:49.863Z,-1.18
2022-12-04T01:36:21.792Z,-1.18
2022-12-04T01:38:48.819Z,-1.18
2022-12-04T01:41:18.518Z,-1.18
2022-12-04T01:43:45.480Z,-1.18
2022-12-04T01:46:12.386Z,-1.19
2022-12-04T01:48:45.877Z,-1.19
2022-12-04T01:51:28.875Z,-1.17
2022-12-04T01:54:00.813Z,-1.18
2022-12-04T01:56:41.010Z,-1.17
2022-12-04T01:59:09.975Z,-1.17
2022-12-04T02:01:44.704Z,-1.16
2022-12-04T02:04:12.133Z,-1.16
2022-12-04T02:06:38.956Z,-1.16
2022-12-04T02:09:06.618Z,-1.15
2022-12-04T02:12:12.469Z,-1.15
2022-12-04T02:14:53.708Z,-1.15
2022-12-04T02:17:28.218Z,-1.15
2022-12-04T02:20:32.066Z,-1.15
2022-12-04T02:23:25.071Z,-1.15
2022-12-04T02:26:37.702Z,-1.14
2022-12-04T02:29:15.911Z,-1.16
2022-12-04T02:31:52.779Z,-1.15
2022-12-04T02:34:30.442Z,-1.14
2022-12-04T02:37:06.181Z,-1.14
2022-12-04T02:39:40.201Z,-1.14
2022-12-04T02:42:16.261Z,-1.15
2022-12-04T02:44:55.571Z,-1.15
2022-12-04T02:47:24.898Z,-1.16
2022-12-04T02:49:58.811Z,-1.16
2022-12-04T02:52:34.607Z,-1.17
2022-12-04T02:55:10.653Z,-1.16
2022-12-04T02:57:40.256Z,-1.18
2022-12-04T03:00:08.956Z,-1.19
2022-12-04T03:02:57.819Z,-1.20
2022-12-04T03:05:48.986Z,-1.21
2022-12-04T03:08:21.754Z,-1.22
2022-12-04T03:10:52.835Z,-1.22
2022-12-04T03:13:30.255Z,-1.22
2022-12-04T03:16:06.549Z,-1.23
2022-12-04T03:18:53.303Z,-1.22
2022-12-04T03:21:22.187Z,-1.23
2022-12-04T03:23:56.547Z,-1.25
2022-12-04T03:26:39.585Z,-1.26
2022-12-04T03:29:30.573Z,-1.25
2022-12-04T03:32:06.282Z,-1.26
2022-12-04T03:34:48.321Z,-1.28
2022-12-04T03:37:21.672Z,-1.29
2022-12-04T03:40:01.803Z,-1.29
2022-12-04T03:42:40.561Z,-1.29
2022-12-04T03:45:30.362Z,-1.30
2022-12-04T03:48:30.984Z,-1.28
2022-12-04T03:51:03.017Z,-1.30
2022-12-04T03:53:39.059Z,-1.30
2022-12-04T03:56:10.785Z,-1.30
2022-12-04T03:58:40.906Z,-1.30
2022-12-04T04:01:11.272Z,-1.29
2022-12-04T04:03:45.976Z,-1.30
2022-12-04T04:06:18.798Z,-1.30
2022-12-04T04:08:51.625Z,-1.29
2022-12-04T04:11:24.738Z,-1.29
2022-12-04T04:14:15.323Z,-1.29
2022-12-04T04:17:06.510Z,-1.29
2022-12-04T04:19:57.549Z,-1.30
2022-12-04T04:22:44.803Z,-1.31
2022-12-04T04:25:15.667Z,-1.31
2022-12-04T04:27:42.483Z,-1.32
2022-12-04T04:30:10.562Z,-1.32
2022-12-04T04:32:57.684Z,-1.32
2022-12-04T04:35:33.412Z,-1.32
2022-12-04T04:38:24.724Z,-1.32
2022-12-04T04:41:10.720Z,-1.33
2022-12-04T04:43:51.431Z,-1.33
2022-12-04T04:46:28.315Z,-1.33
2022-12-04T04:49:00.123Z,-1.33
2022-12-04T04:51:30.380Z,-1.32
2022-12-04T04:54:00.129Z,-1.34
2022-12-04T04:56:27.848Z,-1.33
2022-12-04T04:58:54.608Z,-1.35
2022-12-04T05:01:26.181Z,-1.35
2022-12-04T05:03:53.106Z,-1.35
2022-12-04T05:06:19.971Z,-1.35
2022-12-04T05:08:48.586Z,-1.36
2022-12-04T05:11:16.536Z,-1.35
2022-12-04T05:13:43.435Z,-1.35
2022-12-04T05:16:12.833Z,-1.37
2022-12-04T05:18:40.554Z,-1.39
2022-12-04T05:21:16.300Z,-1.41
2022-12-04T05:23:43.387Z,-1.43
2022-12-04T05:26:10.805Z,-1.45
2022-12-04T05:28:38.968Z,-1.46
2022-12-04T05:31:05.927Z,-1.47
2022-12-04T05:33:32.713Z,-1.47
2022-12-04T05:36:01.632Z,-1.46
2022-12-04T05:38:29.170Z,-1.47
2022-12-04T05:40:58.750Z,-1.47
2022-12-04T05:43:25.895Z,-1.49
2022-12-04T05:45:52.611Z,-1.49
2022-12-04T05:48:19.500Z,-1.49
2022-12-04T05:50:46.326Z,-1.49
2022-12-04T05:53:13.418Z,-1.48
2022-12-04T05:55:40.074Z,-1.49
2022-12-04T05:58:06.728Z,-1.50
2022-12-04T06:00:33.474Z,-1.48
2022-12-04T06:03:00.166Z,-1.49
2022-12-04T06:05:26.907Z,-1.49
2022-12-04T06:07:53.724Z,-1.48
2022-12-04T06:10:21.025Z,-1.48
2022-12-04T06:12:47.721Z,-1.49
2022-12-04T06:15:14.544Z,-1.49
2022-12-04T06:17:41.221Z,-1.48
2022-12-04T06:20:11.743Z,-1.49
2022-12-04T06:22:38.966Z,-1.48
2022-12-04T06:25:06.678Z,-1.49
2022-12-04T06:27:35.158Z,-1.49
2022-12-04T06:30:02.194Z,-1.48
2022-12-04T06:32:28.959Z,-1.48
2022-12-04T06:34:55.760Z,-1.48
2022-12-04T06:37:24.294Z,-1.48
2022-12-04T06:39:51.053Z,-1.49
2022-12-04T06:42:17.861Z,-1.48
2022-12-04T06:44:44.864Z,-1.48
2022-12-04T06:47:11.663Z,-1.49
2022-12-04T06:49:38.404Z,-1.48
2022-12-04T06:52:05.104Z,-1.49
2022-12-04T06:54:31.794Z,-1.50
2022-12-04T06:56:58.969Z,-1.50
2022-12-04T06:59:25.891Z,-1.47
2022-12-04T07:01:52.651Z,-1.48
2022-12-04T07:04:20.037Z,-1.46
2022-12-04T07:06:46.675Z,-1.47
2022-12-04T07:09:16.484Z,-1.47
2022-12-04T07:11:44.594Z,-1.46
2022-12-04T07:14:12.730Z,-1.45
2022-12-04T07:16:41.897Z,-1.45
2022-12-04T07:19:11.763Z,-1.44
2022-12-04T07:21:38.689Z,-1.44
2022-12-04T07:24:05.822Z,-1.43
2022-12-04T07:26:32.509Z,-1.40
2022-12-04T07:28:59.572Z,-1.38
2022-12-04T07:31:28.211Z,-1.36
2022-12-04T07:33:55.414Z,-1.34
2022-12-04T07:36:24.155Z,-1.31
2022-12-04T07:38:51.791Z,-1.31
2022-12-04T07:41:19.025Z,-1.28
2022-12-04T07:43:45.851Z,-1.23
2022-12-04T07:46:16.234Z,-1.22
2022-12-04T07:48:44.143Z,-1.19
2022-12-04T07:51:16.403Z,-1.16
2022-12-04T07:53:43.951Z,-1.14
2022-12-04T07:56:11.853Z,-1.11
2022-12-04T07:58:41.225Z,-1.09
2022-12-04T08:01:12.570Z,-1.08
2022-12-04T08:03:47.184Z,-1.06
2022-12-04T08:06:19.265Z,-1.04
2022-12-04T08:08:47.763Z,-1.01
2022-12-04T08:11:17.039Z,-0.99
2022-12-04T08:13:44.608Z,-0.97
2022-12-04T08:16:12.183Z,-0.97
2022-12-04T08:18:40.756Z,-0.96
2022-12-04T08:21:13.406Z,-0.94
2022-12-04T08:23:41.914Z,-0.91
2022-12-04T08:26:09.978Z,-0.89
2022-12-04T08:28:37.582Z,-0.87
2022-12-04T08:31:12.104Z,-0.84
2022-12-04T08:33:40.263Z,-0.80
2022-12-04T08:36:09.471Z,-0.78
2022-12-04T08:38:37.150Z,-0.75
2022-12-04T08:41:06.446Z,-0.73
2022-12-04T08:43:34.030Z,-0.70
2022-12-04T08:46:03.885Z,-0.67
2022-12-04T08:48:32.219Z,-0.63
2022-12-04T08:50:59.173Z,-0.61
2022-12-04T08:53:26.615Z,-0.61
2022-12-04T08:55:53.288Z,-0.62
2022-12-04T08:58:20.071Z,-0.59
2022-12-04T09:00:47.681Z,-0.56
2022-12-04T09:03:16.891Z,-0.53
2022-12-04T09:05:48.063Z,-0.52
2022-12-04T09:08:16.356Z,-0.52
2022-12-04T09:10:44.132Z,-0.51
2022-12-04T09:13:11.171Z,-0.49
2022-12-04T09:15:39.821Z,-0.48
2022-12-04T09:18:07.576Z,-0.48
2022-12-04T09:20:34.800Z,-0.47
2022-12-04T09:23:04.736Z,-0.46
2022-12-04T09:25:37.220Z,-0.45
2022-12-04T09:28:04.459Z,-0.47
2022-12-04T09:30:31.288Z,-0.46
2022-12-04T09:32:58.160Z,-0.45
2022-12-04T09:35:25.200Z,-0.43
2022-12-04T09:37:52.321Z,-0.40
2022-12-04T09:40:33.435Z,-0.40
2022-12-04T09:43:12.486Z,-0.43
2022-12-04T09:45:47.874Z,-0.37
2022-12-04T09:48:17.701Z,-0.36
2022-12-04T09:50:47.600Z,-0.35
2022-12-04T09:53:28.475Z,-0.34
2022-12-04T09:55:58.146Z,-0.34
2022-12-04T09:58:35.655Z,-0.32
2022-12-04T10:01:04.494Z,-0.32
2022-12-04T10:03:32.102Z,-0.32
2022-12-04T10:06:19.427Z,-0.32
2022-12-04T10:08:52.843Z,-0.29
2022-12-04T10:11:32.864Z,-0.28
2022-12-04T10:14:12.222Z,-0.27
2022-12-04T10:16:51.764Z,-0.25
2022-12-04T10:19:37.329Z,-0.26
2022-12-04T10:22:29.277Z,-0.24
2022-12-04T10:25:02.693Z,-0.23
2022-12-04T10:27:39.253Z,-0.22
2022-12-04T10:30:20.509Z,-0.18
2022-12-04T10:32:55.942Z,-0.17
2022-12-04T10:35:29.061Z,-0.15
2022-12-04T10:38:14.729Z,-0.15
2022-12-04T10:40:54.364Z,-0.16
2022-12-04T10:43:40.218Z,-0.16
2022-12-04T10:46:25.395Z,-0.14
2022-12-04T10:48:59.281Z,-0.11
2022-12-04T10:51:27.140Z,-0.12
2022-12-04T10:53:56.396Z,-0.11
2022-12-04T10:56:25.365Z,-0.12
2022-12-04T10:59:03.221Z,-0.12
2022-12-04T11:01:32.930Z,-0.11
2022-12-04T11:04:07.323Z,-0.12
2022-12-04T11:06:35.420Z,-0.09
2022-12-04T11:09:03.779Z,-0.08
2022-12-04T11:11:34.357Z,-0.08
2022-12-04T11:14:01.403Z,-0.08
2022-12-04T11:16:44.129Z,-0.07
2022-12-04T11:19:21.547Z,-0.07
2022-12-04T11:21:49.263Z,-0.07
2022-12-04T11:24:22.013Z,-0.07
2022-12-04T11:26:50.557Z,-0.06
2022-12-04T11:29:25.519Z,-0.07
2022-12-04T11:31:55.005Z,-0.09
2022-12-04T11:34:32.340Z,-0.07
2022-12-04T11:36:59.929Z,-0.05
2022-12-04T11:39:34.671Z,-0.05
2022-12-04T11:42:05.696Z,-0.05
2022-12-04T11:44:35.900Z,-0.05
2022-12-04T11:47:04.572Z,-0.06
2022-12-04T11:49:32.902Z,-0.09
2022-12-04T11:52:02.861Z,-0.08
2022-12-04T11:54:39.496Z,-0.09
2022-12-04T11:57:23.394Z,-0.09
2022-12-04T11:59:59.427Z,-0.08
2022-12-04T12:03:04.314Z,-0.05
2022-12-04T12:05:46.644Z,-0.06
2022-12-04T12:08:30.103Z,-0.06
2022-12-04T12:11:11.159Z,-0.03
2022-12-04T12:13:58.841Z,-0.03
2022-12-04T12:16:48.341Z,-0.04
2022-12-04T12:19:47.996Z,-0.05
2022-12-04T12:22:14.689Z,-0.05
2022-12-04T12:24:53.844Z,-0.06
2022-12-04T12:27:31.812Z,-0.03
2022-12-04T12:30:21.781Z,-0.04
2022-12-04T12:33:07.862Z,-0.04
2022-12-04T12:35:57.933Z,-0.04
2022-12-04T12:38:47.250Z,-0.03
2022-12-04T12:41:27.237Z,-0.02
2022-12-04T12:44:03.774Z,-0.03
2022-12-04T12:46:36.329Z,-0.03
2022-12-04T12:49:16.708Z,-0.05
2022-12-04T12:52:17.017Z,-0.06
2022-12-04T12:54:58.577Z,-0.10
2022-12-04T12:57:41.711Z,-0.10
2022-12-04T13:00:19.771Z,-0.10
2022-12-04T13:02:53.115Z,-0.10
2022-12-04T13:05:30.464Z,-0.10
2022-12-04T13:08:06.190Z,-0.09
2022-12-04T13:10:41.005Z,-0.07
2022-12-04T13:13:16.836Z,-0.06
2022-12-04T13:15:50.902Z,-0.07
2022-12-04T13:18:27.707Z,-0.07
2022-12-04T13:20:59.101Z,-0.06
2022-12-04T13:24:00.457Z,-0.06
2022-12-04T13:26:49.774Z,-0.06
2022-12-04T13:29:31.791Z,-0.06
2022-12-04T13:32:27.192Z,-0.07
2022-12-04T13:35:24.051Z,-0.07
2022-12-04T13:38:15.505Z,-0.06
2022-12-04T13:40:47.506Z,-0.06
2022-12-04T13:43:15.959Z,-0.06
2022-12-04T13:45:46.821Z,-0.05
2022-12-04T13:48:13.651Z,-0.07
2022-12-04T13:50:40.495Z,-0.06
2022-12-04T13:53:31.910Z,-0.05
2022-12-04T13:56:03.049Z,-0.06
2022-12-04T13:58:35.517Z,-0.06
2022-12-04T14:01:20.739Z,-0.05
2022-12-04T14:03:58.821Z,-0.06
2022-12-04T14:06:34.902Z,-0.06
2022-12-04T14:09:03.911Z,-0.05
2022-12-04T14:11:42.184Z,-0.05
2022-12-04T14:14:38.409Z,-0.04
2022-12-04T14:17:16.500Z,-0.04
2022-12-04T14:19:50.695Z,-0.04
2022-12-04T14:22:29.457Z,-0.04
2022-12-04T14:25:24.108Z,-0.03
2022-12-04T14:27:53.058Z,-0.03
2022-12-04T14:30:34.253Z,-0.02
2022-12-04T14:33:22.037Z,-0.03
2022-12-04T14:35:54.587Z,-0.05
2022-12-04T14:38:22.945Z,-0.04
2022-12-04T14:40:55.539Z,-0.05
2022-12-04T14:43:25.306Z,-0.06
2022-12-04T14:46:03.037Z,-0.08
2022-12-04T14:48:57.964Z,-0.09
2022-12-04T14:51:41.036Z,-0.10
2022-12-04T14:54:40.417Z,-0.12
2022-12-04T14:57:24.220Z,-0.12
2022-12-04T14:59:54.052Z,-0.16
2022-12-04T15:02:39.912Z,-0.18
2022-12-04T15:05:16.043Z,-0.19
2022-12-04T15:07:53.022Z,-0.20
2022-12-04T15:10:45.040Z,-0.22
2022-12-04T15:13:15.987Z,-0.21
2022-12-04T15:15:46.266Z,-0.22
2022-12-04T15:18:15.621Z,-0.22
2022-12-04T15:20:51.763Z,-0.24
2022-12-04T15:23:24.947Z,-0.25
2022-12-04T15:25:55.159Z,-0.26
2022-12-04T15:28:33.485Z,-0.27
2022-12-04T15:31:02.554Z,-0.32
2022-12-04T15:33:35.331Z,-0.34
2022-12-04T15:36:15.265Z,-0.35
2022-12-04T15:38:42.215Z,-0.38
2022-12-04T15:41:34.361Z,-0.44
2022-12-04T15:44:02.385Z,-0.47
2022-12-04T15:46:37.355Z,-0.49
2022-12-04T15:49:31.029Z,-0.52
2022-12-04T15:52:17.324Z,-0.55
2022-12-04T15:54:47.833Z,-0.56
2022-12-04T15:57:19.893Z,-0.58
2022-12-04T15:59:51.255Z,-0.61
2022-12-04T16:02:40.936Z,-0.63
2022-12-04T16:05:19.795Z,-0.65
2022-12-04T16:08:00.769Z,-0.67
2022-12-04T16:10:35.263Z,-0.67
2022-12-04T16:13:04.368Z,-0.68
2022-12-04T16:15:40.949Z,-0.68
2022-12-04T16:18:12.963Z,-0.68
2022-12-04T16:20:40.801Z,-0.68
2022-12-04T16:23:07.440Z,-0.69
2022-12-04T16:25:34.404Z,-0.69
2022-12-04T16:28:01.306Z,-0.71
2022-12-04T16:30:31.532Z,-0.72
2022-12-04T16:32:58.282Z,-0.74
2022-12-04T16:35:25.108Z,-0.75
2022-12-04T16:37:55.911Z,-0.75
2022-12-04T16:40:22.624Z,-0.75
2022-12-04T16:42:49.459Z,-0.78
2022-12-04T16:45:30.839Z,-0.80
2022-12-04T16:47:57.855Z,-0.80
2022-12-04T16:50:26.283Z,-0.81
2022-12-04T16:52:54.566Z,-0.83
2022-12-04T16:55:28.699Z,-0.81
2022-12-04T16:57:55.364Z,-0.81
2022-12-04T17:00:22.136Z,-0.80
2022-12-04T17:02:49.100Z,-0.80
2022-12-04T17:05:23.009Z,-0.81
2022-12-04T17:07:49.880Z,-0.82
2022-12-04T17:10:23.276Z,-0.82
2022-12-04T17:12:54.275Z,-0.82
2022-12-04T17:15:21.646Z,-0.82
2022-12-04T17:17:48.501Z,-0.85
2022-12-04T17:20:17.940Z,-0.87
2022-12-04T17:22:44.625Z,-0.90
2022-12-04T17:25:12.079Z,-0.89
2022-12-04T17:27:39.336Z,-0.86
2022-12-04T17:30:07.862Z,-0.77
2022-12-04T17:32:35.192Z,-0.77
2022-12-04T17:35:04.775Z,-0.78
2022-12-04T17:37:32.851Z,-0.82
2022-12-04T17:39:59.653Z,-0.83
2022-12-04T17:42:27.228Z,-0.85
2022-12-04T17:44:54.343Z,-0.85
2022-12-04T17:47:21.305Z,-0.88
2022-12-04T17:49:48.048Z,-0.90
2022-12-04T17:52:14.798Z,-0.93
2022-12-04T17:54:41.572Z,-0.95
2022-12-04T17:57:08.425Z,-0.96
2022-12-04T17:59:35.196Z,-0.98
2022-12-04T18:02:01.837Z,-0.98
2022-12-04T18:04:28.528Z,-0.99
2022-12-04T18:06:56.035Z,-1.00
2022-12-04T18:09:22.734Z,-1.01
2022-12-04T18:11:49.426Z,-1.02
2022-12-04T18:14:19.533Z,-1.02
2022-12-04T18:16:52.678Z,-1.04
2022-12-04T18:19:21.198Z,-1.05
2022-12-04T18:21:47.933Z,-1.05
2022-12-04T18:24:14.966Z,-1.06
2022-12-04T18:26:47.417Z,-1.06
2022-12-04T18:29:18.020Z,-1.09
2022-12-04T18:31:45.490Z,-1.11
2022-12-04T18:34:13.129Z,-1.12
2022-12-04T18:36:40.742Z,-1.14
2022-12-04T18:39:12.664Z,-1.13
2022-12-04T18:41:39.553Z,-1.15
2022-12-04T18:44:06.404Z,-1.18
2022-12-04T18:46:33.261Z,-1.17
2022-12-04T18:49:00.593Z,-1.18
2022-12-04T18:51:39.437Z,-1.18
2022-12-04T18:54:10.424Z,-1.19
2022-12-04T18:56:38.165Z,-1.24
2022-12-04T18:59:12.444Z,-1.24
2022-12-04T19:01:41.297Z,-1.23
2022-12-04T19:04:10.243Z,-1.24
2022-12-04T19:06:39.641Z,-1.25
2022-12-04T19:09:10.653Z,-1.25
2022-12-04T19:11:38.818Z,-1.27
2022-12-04T19:14:16.133Z,-1.28
2022-12-04T19:16:45.843Z,-1.28
2022-12-04T19:19:14.159Z,-1.27
2022-12-04T19:21:41.213Z,-1.27
2022-12-04T19:24:09.788Z,-1.30
2022-12-04T19:26:37.178Z,-1.31
2022-12-04T19:29:05.048Z,-1.33
2022-12-04T19:31:34.254Z,-1.33
2022-12-04T19:34:02.093Z,-1.34
2022-12-04T19:36:30.785Z,-1.32
2022-12-04T19:38:58.271Z,-1.32
2022-12-04T19:41:29.485Z,-1.32
2022-12-04T19:44:00.155Z,-1.32
2022-12-04T19:46:29.929Z,-1.32
2022-12-04T19:49:00.947Z,-1.35
2022-12-04T19:51:28.323Z,-1.34
2022-12-04T19:53:55.093Z,-1.35
2022-12-04T19:56:24.337Z,-1.35
2022-12-04T19:58:52.621Z,-1.36
2022-12-04T20:01:24.241Z,-1.37
2022-12-04T20:03:51.323Z,-1.37
2022-12-04T20:06:22.192Z,-1.40
2022-12-04T20:08:55.341Z,-1.40
2022-12-04T20:11:23.007Z,-1.41
2022-12-04T20:13:55.098Z,-1.41
2022-12-04T20:16:26.824Z,-1.41
2022-12-04T20:18:54.245Z,-1.42
2022-12-04T20:21:25.648Z,-1.42
2022-12-04T20:23:53.744Z,-1.41
2022-12-04T20:26:23.665Z,-1.42
2022-12-04T20:28:50.787Z,-1.41
2022-12-04T20:31:26.318Z,-1.43
2022-12-04T20:33:54.791Z,-1.43
2022-12-04T20:36:24.896Z,-1.44
2022-12-04T20:38:54.867Z,-1.43
2022-12-04T20:41:22.143Z,-1.44
2022-12-04T20:43:48.866Z,-1.44
2022-12-04T20:46:16.801Z,-1.46
2022-12-04T20:48:47.812Z,-1.47
2022-12-04T20:51:16.998Z,-1.48
2022-12-04T20:53:45.695Z,-1.49
2022-12-04T20:56:13.478Z,-1.49
2022-12-04T20:58:42.930Z,-1.50
2022-12-04T21:01:17.958Z,-1.52
2022-12-04T21:03:45.987Z,-1.52
2022-12-04T21:06:14.082Z,-1.53
2022-12-04T21:08:55.399Z,-1.53
2022-12-04T21:11:33.228Z,-1.52
2022-12-04T21:14:20.223Z,-1.53
2022-12-04T21:16:47.453Z,-1.56
2022-12-04T21:19:16.901Z,-1.55
2022-12-04T21:21:44.161Z,-1.56
2022-12-04T21:24:13.044Z,-1.58
2022-12-04T21:26:44.073Z,-1.57
2022-12-04T21:29:11.074Z,-1.59
2022-12-04T21:31:38.544Z,-1.60
2022-12-04T21:34:07.710Z,-1.62
2022-12-04T21:36:34.528Z,-1.62
2022-12-04T21:39:01.227Z,-1.62
2022-12-04T21:41:46.583Z,-1.62
2022-12-04T21:44:16.467Z,-1.60
2022-12-04T21:46:44.544Z,-1.60
2022-12-04T21:49:13.064Z,-1.63
2022-12-04T21:51:56.921Z,-1.65
2022-12-04T21:54:26.732Z,-1.64
2022-12-04T21:56:54.132Z,-1.63
2022-12-04T21:59:20.956Z,-1.63
2022-12-04T22:01:47.848Z,-1.63
2022-12-04T22:04:15.158Z,-1.65
2022-12-04T22:06:42.526Z,-1.63
2022-12-04T22:09:12.128Z,-1.62
2022-12-04T22:11:42.781Z,-1.62
2022-12-04T22:14:11.038Z,-1.64
2022-12-04T22:16:43.232Z,-1.63
2022-12-04T22:19:11.948Z,-1.62
2022-12-04T22:21:39.323Z,-1.62
2022-12-04T22:24:06.984Z,-1.61
2022-12-04T22:26:33.763Z,-1.59
2022-12-04T22:29:00.660Z,-1.60
2022-12-04T22:31:29.813Z,-1.60
2022-12-04T22:33:59.464Z,-1.60
2022-12-04T22:36:32.075Z,-1.60
2022-12-04T22:39:09.430Z,-1.62
2022-12-04T22:41:37.013Z,-1.62
2022-12-04T22:44:04.518Z,-1.61
2022-12-04T22:46:32.079Z,-1.60
2022-12-04T22:49:00.035Z,-1.59
2022-12-04T22:51:27.853Z,-1.58
2022-12-04T22:53:57.375Z,-1.59
2022-12-04T22:56:27.985Z,-1.58
2022-12-04T22:58:57.139Z,-1.59
2022-12-04T23:01:29.722Z,-1.60
2022-12-04T23:03:56.985Z,-1.61
2022-12-04T23:06:26.766Z,-1.61
2022-12-04T23:08:59.152Z,-1.61
2022-12-04T23:11:27.435Z,-1.63
2022-12-04T23:13:56.637Z,-1.62
2022-12-04T23:16:24.232Z,-1.63
2022-12-04T23:18:52.442Z,-1.63
2022-12-04T23:21:20.712Z,-1.63
2022-12-04T23:23:48.494Z,-1.62
2022-12-04T23:26:21.475Z,-1.62
2022-12-04T23:28:48.300Z,-1.62
2022-12-04T23:31:15.647Z,-1.62
2022-12-04T23:33:42.537Z,-1.61
2022-12-04T23:36:11.334Z,-1.61
2022-12-04T23:38:39.974Z,-1.62
2022-12-04T23:41:15.470Z,-1.63
2022-12-04T23:43:43.251Z,-1.64
2022-12-04T23:46:11.888Z,-1.65
2022-12-04T23:48:40.235Z,-1.67
2022-12-04T23:51:07.980Z,-1.68
2022-12-04T23:53:35.350Z,-1.67
2022-12-04T23:56:07.453Z,-1.68
2022-12-04T23:58:35.056Z,-1.71
